createdAt,value
2024-05-09T00:00:00.542Z,362.70
2024-05-09T00:01:00.653Z,363.50
2024-05-09T00:02:00.527Z,363.10
2024-05-09T00:03:01.241Z,363.10
2024-05-09T00:04:00.599Z,362.30
2024-05-09T00:05:00.586Z,360.70
2024-05-09T00:06:00.684Z,360.70
2024-05-09T00:07:00.442Z,361.50
2024-05-09T00:07:59.891Z,361.10
2024-05-09T00:09:00.411Z,361.50
2024-05-09T00:10:00.470Z,361.10
2024-05-09T00:11:01.123Z,361.50
2024-05-09T00:12:00.046Z,361.10
2024-05-09T00:13:00.359Z,362.70
2024-05-09T00:13:59.628Z,360.70
2024-05-09T00:14:59.595Z,360.70
2024-05-09T00:15:59.588Z,360.31
2024-05-09T00:16:59.614Z,359.91
2024-05-09T00:17:59.666Z,357.95
2024-05-09T00:18:59.640Z,357.56
2024-05-09T00:20:00.340Z,359.52
2024-05-09T00:20:59.651Z,358.34
2024-05-09T00:21:59.583Z,358.34
2024-05-09T00:22:59.570Z,358.73
2024-05-09T00:23:59.665Z,357.95
2024-05-09T00:24:59.577Z,358.34
2024-05-09T00:26:00.220Z,357.56
2024-05-09T00:27:00.176Z,359.13
2024-05-09T00:28:00.933Z,357.17
2024-05-09T00:29:00.197Z,358.73
2024-05-09T00:29:59.585Z,357.56
2024-05-09T00:30:59.575Z,357.95
2024-05-09T00:31:59.437Z,358.34
2024-05-09T00:32:59.711Z,358.73
2024-05-09T00:34:00.233Z,358.34
2024-05-09T00:34:59.593Z,357.56
2024-05-09T00:36:00.048Z,357.17
2024-05-09T00:37:00.051Z,356.40
2024-05-09T00:38:00.205Z,356.40
2024-05-09T00:39:00.018Z,357.56
2024-05-09T00:39:59.970Z,355.62
2024-05-09T00:40:59.255Z,355.62
2024-05-09T00:41:59.236Z,356.40
2024-05-09T00:42:59.216Z,355.24
2024-05-09T00:43:59.237Z,356.01
2024-05-09T00:44:59.196Z,356.40
2024-05-09T00:45:59.160Z,357.17
2024-05-09T00:46:59.926Z,353.71
2024-05-09T00:47:59.450Z,356.01
2024-05-09T00:48:59.216Z,355.24
2024-05-09T00:49:59.151Z,356.01
2024-05-09T00:50:59.101Z,354.09
2024-05-09T00:51:59.083Z,355.62
2024-05-09T00:52:59.123Z,353.71
2024-05-09T00:53:59.077Z,355.62
2024-05-09T00:54:59.141Z,354.09
2024-05-09T00:55:59.064Z,354.85
2024-05-09T00:56:59.145Z,354.47
2024-05-09T00:57:58.999Z,354.09
2024-05-09T00:58:59.034Z,354.09
2024-05-09T00:59:59.764Z,353.71
2024-05-09T01:00:58.985Z,356.40
2024-05-09T01:01:59.007Z,354.85
2024-05-09T01:02:59.082Z,356.78
2024-05-09T01:03:59.274Z,356.40
2024-05-09T01:04:59.769Z,354.09
2024-05-09T01:05:59.751Z,356.01
2024-05-09T01:07:00.833Z,355.24
2024-05-09T01:07:59.668Z,354.85
2024-05-09T01:08:58.843Z,355.24
2024-05-09T01:09:59.590Z,354.47
2024-05-09T01:10:58.889Z,354.47
2024-05-09T01:11:59.624Z,354.85
2024-05-09T01:12:58.839Z,354.47
2024-05-09T01:13:58.810Z,353.33
2024-05-09T01:14:58.808Z,353.71
2024-05-09T01:15:58.768Z,353.71
2024-05-09T01:16:58.822Z,353.71
2024-05-09T01:17:59.325Z,354.85
2024-05-09T01:18:58.809Z,355.24
2024-05-09T01:19:59.498Z,353.71
2024-05-09T01:20:58.700Z,354.47
2024-05-09T01:21:58.701Z,352.19
2024-05-09T01:22:58.976Z,353.33
2024-05-09T01:23:58.788Z,354.09
2024-05-09T01:24:58.642Z,354.09
2024-05-09T01:25:58.962Z,354.85
2024-05-09T01:26:58.611Z,355.62
2024-05-09T01:27:58.597Z,355.24
2024-05-09T01:28:58.982Z,354.47
2024-05-09T01:29:59.978Z,354.09
2024-05-09T01:30:59.972Z,353.33
2024-05-09T01:31:59.242Z,353.71
2024-05-09T01:32:58.684Z,354.09
2024-05-09T01:33:58.744Z,354.85
2024-05-09T01:34:58.666Z,354.09
2024-05-09T01:35:59.221Z,352.95
2024-05-09T01:36:58.605Z,354.09
2024-05-09T01:37:59.299Z,355.24
2024-05-09T01:38:58.856Z,353.71
2024-05-09T01:39:58.858Z,352.19
2024-05-09T01:40:58.484Z,351.81
2024-05-09T01:41:59.194Z,354.47
2024-05-09T01:43:00.342Z,353.71
2024-05-09T01:43:59.158Z,354.85
2024-05-09T01:44:58.357Z,353.71
2024-05-09T01:45:58.355Z,353.71
2024-05-09T01:46:58.464Z,355.24
2024-05-09T01:47:59.176Z,356.78
2024-05-09T01:48:58.464Z,355.62
2024-05-09T01:49:58.341Z,356.78
2024-05-09T01:50:58.319Z,353.71
2024-05-09T01:51:58.258Z,355.24
2024-05-09T01:52:58.266Z,354.85
2024-05-09T01:53:58.238Z,354.47
2024-05-09T01:55:00.095Z,355.62
2024-05-09T01:55:58.242Z,356.40
2024-05-09T01:56:58.235Z,354.47
2024-05-09T01:57:58.217Z,354.09
2024-05-09T01:58:58.207Z,353.71
2024-05-09T01:59:58.165Z,354.85
2024-05-09T02:00:59.578Z,354.09
2024-05-09T02:01:59.024Z,355.24
2024-05-09T02:02:58.246Z,354.09
2024-05-09T02:03:58.370Z,352.57
2024-05-09T02:04:58.163Z,357.56
2024-05-09T02:05:58.106Z,355.62
2024-05-09T02:06:58.060Z,356.01
2024-05-09T02:07:58.092Z,355.24
2024-05-09T02:08:58.051Z,356.01
2024-05-09T02:09:58.227Z,356.78
2024-05-09T02:10:58.364Z,356.01
2024-05-09T02:11:59.526Z,355.62
2024-05-09T02:12:59.391Z,356.78
2024-05-09T02:13:58.038Z,356.01
2024-05-09T02:14:58.702Z,356.40
2024-05-09T02:15:59.350Z,356.40
2024-05-09T02:16:58.860Z,355.62
2024-05-09T02:17:58.748Z,355.24
2024-05-09T02:18:58.738Z,356.78
2024-05-09T02:19:58.687Z,356.01
2024-05-09T02:20:58.701Z,357.56
2024-05-09T02:21:58.625Z,355.24
2024-05-09T02:22:57.890Z,355.62
2024-05-09T02:23:57.867Z,357.95
2024-05-09T02:24:58.605Z,357.17
2024-05-09T02:25:57.859Z,359.13
2024-05-09T02:26:58.560Z,356.01
2024-05-09T02:27:58.526Z,356.78
2024-05-09T02:28:59.265Z,359.13
2024-05-09T02:29:58.525Z,360.70
2024-05-09T02:30:58.516Z,357.95
2024-05-09T02:31:58.520Z,358.73
2024-05-09T02:32:58.714Z,360.31
2024-05-09T02:33:58.635Z,359.13
2024-05-09T02:34:58.477Z,357.56
2024-05-09T02:35:58.461Z,358.34
2024-05-09T02:36:58.437Z,357.56
2024-05-09T02:37:58.442Z,356.78
2024-05-09T02:38:58.194Z,360.31
2024-05-09T02:39:58.397Z,360.70
2024-05-09T02:40:58.415Z,359.52
2024-05-09T02:41:58.373Z,359.52
2024-05-09T02:42:58.336Z,357.95
2024-05-09T02:43:59.048Z,358.73
2024-05-09T02:44:58.334Z,360.31
2024-05-09T02:45:58.306Z,359.13
2024-05-09T02:46:58.340Z,359.52
2024-05-09T02:47:58.839Z,356.78
2024-05-09T02:48:58.364Z,359.13
2024-05-09T02:49:58.298Z,360.31
2024-05-09T02:50:58.312Z,358.34
2024-05-09T02:51:58.216Z,358.73
2024-05-09T02:52:58.205Z,358.34
2024-05-09T02:53:58.266Z,359.52
2024-05-09T02:54:58.183Z,361.90
2024-05-09T02:55:58.240Z,360.70
2024-05-09T02:56:58.844Z,359.13
2024-05-09T02:57:58.168Z,358.34
2024-05-09T02:58:58.164Z,358.73
2024-05-09T02:59:58.128Z,360.70
2024-05-09T03:00:58.138Z,360.70
2024-05-09T03:01:58.132Z,362.30
2024-05-09T03:02:59.441Z,359.52
2024-05-09T03:03:59.402Z,362.30
2024-05-09T03:04:58.208Z,361.50
2024-05-09T03:05:58.690Z,362.30
2024-05-09T03:06:58.031Z,359.91
2024-05-09T03:07:58.054Z,360.70
2024-05-09T03:08:58.015Z,361.50
2024-05-09T03:09:58.034Z,361.50
2024-05-09T03:10:58.020Z,363.10
2024-05-09T03:11:58.058Z,362.70
2024-05-09T03:12:57.969Z,363.50
2024-05-09T03:13:57.960Z,362.30
2024-05-09T03:14:57.977Z,361.50
2024-05-09T03:15:59.120Z,364.31
2024-05-09T03:16:57.932Z,365.12
2024-05-09T03:17:57.966Z,363.91
2024-05-09T03:18:57.914Z,365.53
2024-05-09T03:19:57.887Z,364.31
2024-05-09T03:20:57.901Z,365.12
2024-05-09T03:21:57.848Z,363.50
2024-05-09T03:22:57.889Z,363.10
2024-05-09T03:23:57.796Z,361.90
2024-05-09T03:24:57.799Z,363.50
2024-05-09T03:25:58.496Z,363.10
2024-05-09T03:26:57.772Z,365.93
2024-05-09T03:27:57.753Z,362.70
2024-05-09T03:28:57.766Z,364.71
2024-05-09T03:29:57.735Z,367.58
2024-05-09T03:30:57.715Z,364.71
2024-05-09T03:31:57.758Z,362.70
2024-05-09T03:32:57.787Z,363.50
2024-05-09T03:33:57.792Z,364.31
2024-05-09T03:34:57.706Z,365.12
2024-05-09T03:35:57.638Z,365.93
2024-05-09T03:36:57.622Z,363.91
2024-05-09T03:37:57.645Z,366.75
2024-05-09T03:38:57.616Z,365.93
2024-05-09T03:39:58.260Z,366.34
2024-05-09T03:40:58.812Z,366.34
2024-05-09T03:41:57.570Z,364.71
2024-05-09T03:42:58.187Z,367.99
2024-05-09T03:43:57.578Z,367.58
2024-05-09T03:44:57.499Z,367.16
2024-05-09T03:45:57.508Z,367.99
2024-05-09T03:46:57.545Z,368.40
2024-05-09T03:47:57.701Z,366.75
2024-05-09T03:48:57.484Z,367.16
2024-05-09T03:49:57.520Z,367.16
2024-05-09T03:50:57.463Z,367.99
2024-05-09T03:51:58.065Z,367.58
2024-05-09T03:52:57.431Z,367.99
2024-05-09T03:53:57.367Z,367.58
2024-05-09T03:54:57.463Z,367.99
2024-05-09T03:55:57.379Z,367.58
2024-05-09T03:56:57.352Z,367.99
2024-05-09T03:57:57.339Z,367.99
2024-05-09T03:58:57.367Z,368.40
2024-05-09T03:59:57.314Z,368.40
2024-05-09T04:00:57.353Z,369.23
2024-05-09T04:01:57.455Z,367.16
2024-05-09T04:02:57.373Z,368.81
2024-05-09T04:03:57.260Z,369.23
2024-05-09T04:04:57.274Z,367.58
2024-05-09T04:05:57.231Z,369.23
2024-05-09T04:06:57.215Z,367.99
2024-05-09T04:07:57.950Z,370.48
2024-05-09T04:08:57.160Z,367.58
2024-05-09T04:09:57.210Z,368.40
2024-05-09T04:10:57.174Z,367.99
2024-05-09T04:11:58.519Z,367.99
2024-05-09T04:12:57.149Z,368.40
2024-05-09T04:13:57.166Z,367.58
2024-05-09T04:14:57.109Z,367.99
2024-05-09T04:15:57.132Z,366.34
2024-05-09T04:16:57.757Z,368.40
2024-05-09T04:17:57.044Z,367.99
2024-05-09T04:18:57.122Z,369.64
2024-05-09T04:19:58.242Z,367.99
2024-05-09T04:20:58.242Z,366.75
2024-05-09T04:21:57.010Z,366.75
2024-05-09T04:22:57.032Z,365.53
2024-05-09T04:23:57.034Z,365.12
2024-05-09T04:24:56.975Z,366.75
2024-05-09T04:25:57.007Z,364.71
2024-05-09T04:26:56.987Z,364.31
2024-05-09T04:27:56.932Z,362.30
2024-05-09T04:28:57.625Z,364.71
2024-05-09T04:29:56.901Z,363.50
2024-05-09T04:30:56.899Z,364.71
2024-05-09T04:31:57.671Z,359.52
2024-05-09T04:32:57.037Z,361.50
2024-05-09T04:33:56.974Z,363.10
2024-05-09T04:34:56.991Z,361.50
2024-05-09T04:35:56.830Z,360.31
2024-05-09T04:36:58.020Z,359.52
2024-05-09T04:37:56.848Z,358.34
2024-05-09T04:38:56.778Z,360.31
2024-05-09T04:39:56.770Z,357.56
2024-05-09T04:40:56.801Z,357.95
2024-05-09T04:41:56.744Z,356.78
2024-05-09T04:42:56.748Z,357.56
2024-05-09T04:43:56.741Z,357.17
2024-05-09T04:44:58.720Z,356.01
2024-05-09T04:45:56.687Z,354.47
2024-05-09T04:46:56.738Z,352.57
2024-05-09T04:47:56.930Z,353.33
2024-05-09T04:48:57.979Z,354.85
2024-05-09T04:49:57.308Z,351.43
2024-05-09T04:50:56.647Z,353.71
2024-05-09T04:51:56.612Z,350.68
2024-05-09T04:52:56.646Z,350.31
2024-05-09T04:53:56.556Z,347.71
2024-05-09T04:54:58.507Z,348.08
2024-05-09T04:55:57.347Z,345.88
2024-05-09T04:56:56.543Z,344.06
2024-05-09T04:57:56.536Z,344.06
2024-05-09T04:58:56.518Z,342.27
2024-05-09T04:59:56.500Z,340.85
2024-05-09T05:00:57.153Z,340.14
2024-05-09T05:01:56.638Z,336.65
2024-05-09T05:02:56.569Z,337.00
2024-05-09T05:03:56.658Z,335.27
2024-05-09T05:04:56.558Z,332.89
2024-05-09T05:05:56.471Z,330.55
2024-05-09T05:06:59.744Z,326.60
2024-05-09T05:07:56.408Z,325.95
2024-05-09T05:08:56.369Z,324.66
2024-05-09T05:09:56.379Z,320.22
2024-05-09T05:10:56.444Z,320.85
2024-05-09T05:11:56.392Z,318.05
2024-05-09T05:12:56.994Z,316.52
2024-05-09T05:13:57.034Z,315.91
2024-05-09T05:14:56.314Z,313.49
2024-05-09T05:15:58.115Z,310.23
2024-05-09T05:16:56.353Z,311.70
2024-05-09T05:17:57.126Z,309.35
2024-05-09T05:18:56.273Z,305.61
2024-05-09T05:19:56.334Z,303.63
2024-05-09T05:20:56.488Z,306.18
2024-05-09T05:21:56.229Z,299.20
2024-05-09T05:22:56.212Z,295.96
2024-05-09T05:23:56.149Z,294.63
2024-05-09T05:24:56.872Z,292.53
2024-05-09T05:25:56.278Z,290.20
2024-05-09T05:26:56.161Z,294.37
2024-05-09T05:27:56.146Z,291.23
2024-05-09T05:28:56.823Z,294.63
2024-05-09T05:29:56.112Z,290.46
2024-05-09T05:30:56.779Z,292.27
2024-05-09T05:31:56.161Z,289.43
2024-05-09T05:32:55.650Z,290.46
2024-05-09T05:33:55.324Z,292.27
2024-05-09T05:34:56.076Z,289.69
2024-05-09T05:35:56.018Z,291.49
2024-05-09T05:36:57.185Z,293.31
2024-05-09T05:37:56.088Z,291.23
2024-05-09T05:38:56.052Z,290.97
2024-05-09T05:39:55.987Z,298.93
2024-05-09T05:40:56.167Z,292.53
2024-05-09T05:41:55.926Z,293.31
2024-05-09T05:42:55.903Z,296.23
2024-05-09T05:43:55.957Z,294.63
2024-05-09T05:44:55.902Z,293.58
2024-05-09T05:45:55.915Z,293.84
2024-05-09T05:46:55.878Z,297.57
2024-05-09T05:47:56.102Z,294.63
2024-05-09T05:48:56.043Z,299.47
2024-05-09T05:49:55.843Z,293.31
2024-05-09T05:50:55.996Z,290.97
2024-05-09T05:51:55.816Z,294.37
2024-05-09T05:52:55.803Z,296.23
2024-05-09T05:53:55.770Z,296.76
2024-05-09T05:54:55.772Z,295.43
2024-05-09T05:55:55.773Z,297.57
2024-05-09T05:56:55.710Z,295.43
2024-05-09T05:57:55.727Z,295.43
2024-05-09T05:58:55.448Z,294.63
2024-05-09T05:59:55.672Z,294.37
2024-05-09T06:00:55.691Z,292.27
2024-05-09T06:01:55.684Z,293.31
2024-05-09T06:02:55.717Z,291.75
2024-05-09T06:03:55.676Z,291.75
2024-05-09T06:04:55.707Z,290.97
2024-05-09T06:05:55.647Z,290.97
2024-05-09T06:06:55.610Z,289.18
2024-05-09T06:07:55.760Z,291.23
2024-05-09T06:08:55.609Z,289.43
2024-05-09T06:09:55.549Z,288.92
2024-05-09T06:10:55.688Z,287.15
2024-05-09T06:11:55.622Z,287.15
2024-05-09T06:12:55.502Z,285.16
2024-05-09T06:13:55.531Z,283.68
2024-05-09T06:14:55.458Z,283.92
2024-05-09T06:15:55.457Z,283.19
2024-05-09T06:16:58.054Z,280.29
2024-05-09T06:17:55.575Z,280.29
2024-05-09T06:18:55.535Z,280.05
2024-05-09T06:19:55.463Z,279.33
2024-05-09T06:20:55.484Z,277.21
2024-05-09T06:21:55.393Z,277.21
2024-05-09T06:22:55.405Z,274.42
2024-05-09T06:23:55.353Z,276.04
2024-05-09T06:24:55.319Z,276.27
2024-05-09T06:25:55.388Z,274.65
2024-05-09T06:26:55.314Z,273.28
2024-05-09T06:27:55.305Z,275.11
2024-05-09T06:28:55.316Z,276.97
2024-05-09T06:29:55.245Z,276.74
2024-05-09T06:30:55.269Z,278.62
2024-05-09T06:31:58.577Z,284.66
2024-05-09T06:32:55.341Z,283.68
2024-05-09T06:33:55.327Z,285.65
2024-05-09T06:34:55.219Z,286.90
2024-05-09T06:35:55.187Z,287.40
2024-05-09T06:36:55.195Z,290.97
2024-05-09T06:37:55.203Z,293.58
2024-05-09T06:38:55.158Z,299.47
2024-05-09T06:39:55.131Z,303.91
2024-05-09T06:40:55.169Z,306.46
2024-05-09T06:41:55.128Z,311.11
2024-05-09T06:42:55.105Z,315.91
2024-05-09T06:43:55.100Z,318.36
2024-05-09T06:44:56.291Z,322.42
2024-05-09T06:45:55.074Z,325.62
2024-05-09T06:46:58.102Z,329.22
2024-05-09T06:47:55.136Z,332.22
2024-05-09T06:48:55.127Z,335.27
2024-05-09T06:49:55.083Z,339.44
2024-05-09T06:50:55.052Z,342.63
2024-05-09T06:51:54.991Z,345.15
2024-05-09T06:52:54.980Z,348.08
2024-05-09T06:53:54.916Z,350.31
2024-05-09T06:54:54.960Z,355.62
2024-05-09T06:55:54.988Z,356.78
2024-05-09T06:56:54.920Z,359.13
2024-05-09T06:57:54.891Z,361.50
2024-05-09T06:58:54.924Z,365.12
2024-05-09T06:59:54.889Z,366.34
2024-05-09T07:00:54.901Z,366.34
2024-05-09T07:01:54.874Z,370.90
2024-05-09T07:02:55.735Z,381.27
2024-05-09T07:03:56.120Z,376.43
2024-05-09T07:04:54.888Z,377.30
2024-05-09T07:05:56.003Z,388.14
2024-05-09T07:06:54.781Z,377.73
2024-05-09T07:07:56.016Z,386.35
2024-05-09T07:08:54.821Z,387.47
2024-05-09T07:09:54.733Z,387.69
2024-05-09T07:10:54.792Z,387.02
2024-05-09T07:11:54.763Z,392.72
2024-05-09T07:12:54.661Z,398.11
2024-05-09T07:13:54.693Z,398.82
2024-05-09T07:14:54.670Z,401.71
2024-05-09T07:15:54.670Z,400.98
2024-05-09T07:16:54.738Z,403.65
2024-05-09T07:17:54.767Z,405.86
2024-05-09T07:18:54.871Z,407.85
2024-05-09T07:19:54.617Z,411.62
2024-05-09T07:20:54.610Z,411.12
2024-05-09T07:21:54.549Z,405.62
2024-05-09T07:22:54.567Z,414.95
2024-05-09T07:23:54.596Z,416.51
2024-05-09T07:24:54.532Z,415.21
2024-05-09T07:25:54.630Z,420.45
2024-05-09T07:26:54.484Z,422.85
2024-05-09T07:27:54.488Z,420.45
2024-05-09T07:28:54.520Z,421.78
2024-05-09T07:29:54.460Z,424.73
2024-05-09T07:30:54.455Z,425.28
2024-05-09T07:31:54.450Z,424.19
2024-05-09T07:32:54.530Z,426.64
2024-05-09T07:33:54.503Z,427.18
2024-05-09T07:34:54.441Z,427.73
2024-05-09T07:35:54.376Z,424.73
2024-05-09T07:36:54.345Z,426.09
2024-05-09T07:37:54.496Z,424.19
2024-05-09T07:38:54.334Z,428.28
2024-05-09T07:39:54.345Z,428.28
2024-05-09T07:40:54.370Z,429.94
2024-05-09T07:41:54.276Z,433.01
2024-05-09T07:42:54.300Z,432.45
2024-05-09T07:43:54.370Z,435.84
2024-05-09T07:44:55.538Z,436.12
2024-05-09T07:45:56.336Z,433.57
2024-05-09T07:48:13.757Z,436.70
2024-05-09T07:49:44.023Z,441.61
2024-05-09T07:50:35.469Z,440.74
2024-05-09T07:52:37.913Z,443.96
2024-05-09T07:53:57.107Z,447.54
2024-05-09T07:54:55.262Z,451.78
2024-05-09T07:55:54.303Z,451.78
2024-05-09T07:56:54.638Z,453.01
2024-05-09T07:57:54.819Z,457.05
2024-05-09T07:58:54.580Z,458.62
2024-05-09T07:59:54.032Z,461.48
2024-05-09T08:00:54.114Z,462.12
2024-05-09T08:01:54.104Z,463.72
2024-05-09T08:02:54.060Z,465.67
2024-05-09T08:03:54.944Z,467.30
2024-05-09T08:04:54.050Z,471.26
2024-05-09T08:05:54.025Z,472.60
2024-05-09T08:06:54.017Z,473.27
2024-05-09T08:07:53.953Z,477.67
2024-05-09T08:08:53.989Z,480.77
2024-05-09T08:09:53.970Z,478.70
2024-05-09T08:10:53.990Z,478.70
2024-05-09T08:11:54.078Z,481.82
2024-05-09T08:12:54.005Z,484.62
2024-05-09T08:13:53.882Z,483.56
2024-05-09T08:14:53.835Z,486.03
2024-05-09T08:15:53.875Z,490.32
2024-05-09T08:16:53.915Z,490.32
2024-05-09T08:17:53.920Z,489.60
2024-05-09T08:18:53.890Z,495.79
2024-05-09T08:19:53.797Z,493.22
2024-05-09T08:20:53.788Z,497.64
2024-05-09T08:21:53.778Z,504.41
2024-05-09T08:22:53.752Z,504.03
2024-05-09T08:23:53.740Z,510.20
2024-05-09T08:24:53.765Z,510.98
2024-05-09T08:25:53.706Z,510.20
2024-05-09T08:26:53.699Z,507.87
2024-05-09T08:27:53.733Z,511.38
2024-05-09T08:28:53.661Z,510.98
2024-05-09T08:29:53.734Z,520.96
2024-05-09T08:30:53.760Z,525.07
2024-05-09T08:31:53.714Z,526.72
2024-05-09T08:32:53.722Z,530.07
2024-05-09T08:33:53.742Z,536.90
2024-05-09T08:34:53.672Z,541.26
2024-05-09T08:35:53.597Z,536.47
2024-05-09T08:36:54.199Z,540.82
2024-05-09T08:37:53.669Z,544.35
2024-05-09T08:38:53.535Z,547.48
2024-05-09T08:39:54.220Z,548.38
2024-05-09T08:40:53.567Z,546.14
2024-05-09T08:41:53.507Z,547.93
2024-05-09T08:42:53.538Z,552.01
2024-05-09T08:43:53.491Z,559.89
2024-05-09T08:44:53.511Z,565.59
2024-05-09T08:45:54.230Z,568.97
2024-05-09T08:46:53.453Z,570.43
2024-05-09T08:47:53.458Z,573.37
2024-05-09T08:48:53.651Z,578.85
2024-05-09T08:49:53.446Z,582.90
2024-05-09T08:50:53.173Z,580.36
2024-05-09T08:51:53.423Z,588.04
2024-05-09T08:52:53.355Z,592.21
2024-05-09T08:53:53.343Z,601.29
2024-05-09T08:54:53.430Z,604.02
2024-05-09T08:55:53.323Z,606.21
2024-05-09T08:56:54.514Z,615.16
2024-05-09T08:57:52.658Z,614.03
2024-05-09T08:58:53.278Z,617.44
2024-05-09T08:59:53.280Z,618.58
2024-05-09T09:00:53.334Z,620.31
2024-05-09T09:01:53.331Z,631.47
2024-05-09T09:02:53.230Z,637.51
2024-05-09T09:03:53.394Z,639.34
2024-05-09T09:04:53.280Z,647.41
2024-05-09T09:05:53.354Z,656.33
2024-05-09T09:06:54.876Z,672.89
2024-05-09T09:07:53.228Z,688.88
2024-05-09T09:08:52.870Z,699.72
2024-05-09T09:09:53.336Z,706.39
2024-05-09T09:10:53.196Z,718.57
2024-05-09T09:11:53.174Z,727.98
2024-05-09T09:12:53.107Z,729.58
2024-05-09T09:13:53.092Z,733.59
2024-05-09T09:14:53.734Z,743.40
2024-05-09T09:15:52.872Z,749.25
2024-05-09T09:16:52.502Z,755.95
2024-05-09T09:17:53.051Z,759.39
2024-05-09T09:18:53.326Z,772.12
2024-05-09T09:19:53.065Z,779.33
2024-05-09T09:20:52.794Z,792.76
2024-05-09T09:21:53.018Z,801.80
2024-05-09T09:22:52.564Z,811.55
2024-05-09T09:23:52.996Z,821.03
2024-05-09T09:24:52.986Z,834.38
2024-05-09T09:25:52.916Z,842.27
2024-05-09T09:26:52.934Z,857.42
2024-05-09T09:27:52.951Z,860.73
2024-05-09T09:28:52.336Z,871.98
2024-05-09T09:29:52.355Z,891.19
2024-05-09T09:30:52.969Z,897.78
2024-05-09T09:31:52.462Z,908.16
2024-05-09T09:32:52.593Z,920.05
2024-05-09T09:33:52.708Z,917.53
2024-05-09T09:34:52.090Z,927.08
2024-05-09T09:35:52.037Z,927.73
2024-05-09T09:36:52.874Z,946.14
2024-05-09T09:37:52.011Z,960.43
2024-05-09T09:38:52.020Z,970.91
2024-05-09T09:39:52.033Z,963.90
2024-05-09T09:40:52.083Z,986.70
2024-05-09T09:41:52.015Z,983.79
2024-05-09T09:42:52.794Z,997.01
2024-05-09T09:43:52.062Z,1011.36
2024-05-09T09:45:01.868Z,1023.77
2024-05-09T09:45:54.046Z,1034.08
2024-05-09T09:46:52.052Z,1056.17
2024-05-09T09:47:52.161Z,1059.52
2024-05-09T09:48:51.949Z,1074.01
2024-05-09T09:49:52.157Z,1080.97
2024-05-09T09:50:52.706Z,1103.31
2024-05-09T09:51:52.608Z,1123.74
2024-05-09T09:52:52.555Z,1143.96
2024-05-09T09:53:51.799Z,1150.86
2024-05-09T09:54:52.553Z,1164.92
2024-05-09T09:55:52.553Z,1173.11
2024-05-09T09:56:51.836Z,1185.61
2024-05-09T09:57:51.883Z,1199.46
2024-05-09T09:58:52.482Z,1212.53
2024-05-09T09:59:51.838Z,1233.83
2024-05-09T10:00:51.906Z,1234.97
2024-05-09T10:01:52.537Z,1251.17
2024-05-09T10:02:53.174Z,1245.34
2024-05-09T10:03:52.574Z,1266.60
2024-05-09T10:04:52.547Z,1271.43
2024-05-09T10:05:52.460Z,1277.51
2024-05-09T10:06:51.773Z,1293.60
2024-05-09T10:07:52.349Z,1323.09
2024-05-09T10:08:51.636Z,1343.06
2024-05-09T10:09:51.657Z,1348.48
2024-05-09T10:10:51.803Z,1379.13
2024-05-09T10:11:54.416Z,1394.98
2024-05-09T10:12:53.410Z,1400.84
2024-05-09T10:13:52.287Z,1400.84
2024-05-09T10:14:51.611Z,1396.44
2024-05-09T10:15:51.960Z,1394.98
2024-05-09T10:16:51.485Z,1393.53
2024-05-09T10:17:52.376Z,1384.85
2024-05-09T10:18:52.650Z,1389.18
2024-05-09T10:19:51.813Z,1420.21
2024-05-09T10:20:52.190Z,1432.40
2024-05-09T10:21:51.687Z,1441.69
2024-05-09T10:22:51.504Z,1462.21
2024-05-09T10:23:51.632Z,1463.82
2024-05-09T10:24:52.176Z,1468.65
2024-05-09T10:25:51.628Z,1494.96
2024-05-09T10:26:51.629Z,1494.96
2024-05-09T10:27:52.186Z,1511.89
2024-05-09T10:28:51.570Z,1513.60
2024-05-09T10:29:51.637Z,1509.33
2024-05-09T10:30:52.185Z,1511.04
2024-05-09T10:31:51.719Z,1507.62
2024-05-09T10:32:51.688Z,1516.18
2024-05-09T10:33:52.642Z,1527.46
2024-05-09T10:34:51.548Z,1522.23
2024-05-09T10:35:51.631Z,1526.59
2024-05-09T10:36:53.272Z,1545.14
2024-05-09T10:37:51.632Z,1569.67
2024-05-09T10:38:51.634Z,1575.22
2024-05-09T10:39:51.708Z,1561.40
2024-05-09T10:40:51.675Z,1560.49
2024-05-09T10:41:51.642Z,1571.51
2024-05-09T10:42:51.915Z,1589.29
2024-05-09T10:43:51.770Z,1587.40
2024-05-09T10:44:51.671Z,1599.76
2024-05-09T10:45:51.776Z,1617.20
2024-05-09T10:46:51.116Z,1617.20
2024-05-09T10:47:52.117Z,1639.04
2024-05-09T10:48:51.187Z,1660.45
2024-05-09T10:49:51.889Z,1675.03
2024-05-09T10:50:51.791Z,1681.36
2024-05-09T10:51:51.827Z,1698.47
2024-05-09T10:52:51.322Z,1708.25
2024-05-09T10:53:51.749Z,1712.64
2024-05-09T10:54:51.090Z,1720.36
2024-05-09T10:55:51.714Z,1727.04
2024-05-09T10:56:51.615Z,1733.77
2024-05-09T10:57:51.767Z,1747.38
2024-05-09T10:58:50.910Z,1743.96
2024-05-09T10:59:39.067Z,1776.45
2024-05-09T11:00:53.087Z,1788.35
2024-05-09T11:01:53.015Z,1805.27
2024-05-09T11:02:51.043Z,1801.62
2024-05-09T11:03:51.184Z,1822.53
2024-05-09T11:04:51.820Z,1826.27
2024-05-09T11:05:52.349Z,1840.11
2024-05-09T11:06:50.856Z,1840.11
2024-05-09T11:07:50.807Z,1842.65
2024-05-09T11:08:52.786Z,1865.83
2024-05-09T11:09:50.881Z,1871.06
2024-05-09T11:10:52.955Z,1880.28
2024-05-09T11:11:51.550Z,1875.00
2024-05-09T11:12:50.807Z,1885.59
2024-05-09T11:13:50.735Z,1913.98
2024-05-09T11:14:51.392Z,1944.65
2024-05-09T11:15:51.533Z,1966.13
2024-05-09T11:16:51.487Z,1980.71
2024-05-09T11:17:50.837Z,1983.66
2024-05-09T11:18:51.616Z,1992.54
2024-05-09T11:19:52.794Z,2013.57
2024-05-09T11:20:51.487Z,2050.69
2024-05-09T11:21:52.702Z,2044.41
2024-05-09T11:22:52.584Z,2071.37
2024-05-09T11:23:50.838Z,2099.06
2024-05-09T11:24:52.842Z,2112.34
2024-05-09T11:25:51.332Z,2119.05
2024-05-09T11:26:50.694Z,2134.29
2024-05-09T11:27:51.420Z,2165.45
2024-05-09T11:28:51.276Z,2195.72
2024-05-09T11:29:50.780Z,2212.10
2024-05-09T11:30:51.318Z,2204.79
2024-05-09T11:31:51.259Z,2243.70
2024-05-09T11:32:51.324Z,2238.05
2024-05-09T11:33:51.288Z,2247.48
2024-05-09T11:34:51.217Z,2268.48
2024-05-09T11:35:51.212Z,2285.96
2024-05-09T11:36:51.232Z,2297.76
2024-05-09T11:37:51.169Z,2317.71
2024-05-09T11:38:51.136Z,2329.84
2024-05-09T11:39:51.155Z,2352.42
2024-05-09T11:40:51.813Z,2338.00
2024-05-09T11:41:51.155Z,2333.92
2024-05-09T11:42:53.488Z,2360.74
2024-05-09T11:43:51.064Z,2364.93
2024-05-09T11:44:51.078Z,2379.68
2024-05-09T11:45:51.737Z,2381.80
2024-05-09T11:46:50.290Z,2375.45
2024-05-09T11:47:52.309Z,2398.92
2024-05-09T11:48:52.309Z,2394.62
2024-05-09T11:49:52.253Z,2420.67
2024-05-09T11:50:52.232Z,2433.91
2024-05-09T11:51:52.219Z,2449.54
2024-05-09T11:52:52.193Z,2407.57
2024-05-09T11:53:52.233Z,2405.41
2024-05-09T11:54:52.192Z,2416.29
2024-05-09T11:55:52.174Z,2440.58
2024-05-09T11:56:50.934Z,2442.82
2024-05-09T11:57:52.188Z,2447.30
2024-05-09T11:58:52.103Z,2451.79
2024-05-09T11:59:52.077Z,2460.83
2024-05-09T12:00:50.993Z,2438.36
2024-05-09T12:01:52.104Z,2467.65
2024-05-09T12:02:52.130Z,2474.51
2024-05-09T12:03:52.361Z,2493.00
2024-05-09T12:04:52.092Z,2488.35
2024-05-09T12:05:50.872Z,2516.49
2024-05-09T12:06:50.832Z,2542.86
2024-05-09T12:07:50.752Z,2567.31
2024-05-09T12:08:50.769Z,2564.84
2024-05-09T12:09:50.776Z,2592.23
2024-05-09T12:10:50.892Z,2564.84
2024-05-09T12:11:51.449Z,2577.22
2024-05-09T12:12:51.387Z,2567.31
2024-05-09T12:13:50.698Z,2538.02
2024-05-09T12:14:50.702Z,2594.75
2024-05-09T12:15:50.693Z,2555.02
2024-05-09T12:16:51.378Z,2574.74
2024-05-09T12:17:51.149Z,2592.23
2024-05-09T12:18:50.709Z,2592.23
2024-05-09T12:19:50.616Z,2620.22
2024-05-09T12:20:50.634Z,2609.97
2024-05-09T12:21:50.662Z,2630.54
2024-05-09T12:22:50.585Z,2615.08
2024-05-09T12:23:50.565Z,2656.72
2024-05-09T12:24:50.601Z,2667.33
2024-05-09T12:25:50.520Z,2630.54